Terminal Aerodrome Forecast
Issued by NWS Louisville, KY

Home | Current Version | Previous Version | Text Only | Print | Product List | Glossary On
Versions: 1 2 3 4 5 6 7 8 9 10 11 12 13
463
FTUS43 KLMK 192058 AAA
TAFLEX
TAF AMD
KLEX 192058Z 1921/2018 27012G17KT P6SM SCT022 OVC035
     FM192200 27012KT P6SM SCT035
     FM200000 23004KT P6SM SKC=

USA.gov is the U.S. government's official web portal to all federal, state and local government web resources and services.